Terminal Aerodrome Forecast
Issued by NWS

Home | Current Version | Previous Version | Text Only | Print | Product List | Glossary On
Versions: 1 2 3 4 5 6 7 8 9 10 11 12 13
000
FTUS44 KSJT 221130
TAFBBD
TAF
KBBD 221130Z 2212/2312 35005KT 2SM -FZRA BR OVC003
     FM221600 VRB03KT P6SM VCSH OVC005
     FM230000 03005KT P6SM OVC008
     FM230300 VRB04KT 5SM BR BKN005
      AMD NOT SKED=

USA.gov is the U.S. government's official web portal to all federal, state and local government web resources and services.